sensor_id;sensor_type;location;lat;lon;timestamp;pressure;altitude;pressure_sealevel;temperature;humidity
60228;BME280;46091;46.512;6.626;2023-01-27T05:41:39;96706.25;;;3.30;58.16
60228;BME280;46091;46.512;6.626;2023-01-27T05:43:44;96712.56;;;3.63;57.59
60228;BME280;46091;46.512;6.626;2023-01-27T05:45:47;96713.03;;;3.84;57.15
60228;BME280;46091;46.512;6.626;2023-01-27T05:47:50;96712.19;;;4.01;57.04
60228;BME280;46091;46.512;6.626;2023-01-27T05:49:53;96714.03;;;4.09;56.67
60228;BME280;46091;46.512;6.626;2023-01-27T05:51:56;96707.84;;;4.18;56.58
60228;BME280;46091;46.512;6.626;2023-01-27T05:53:59;96707.44;;;4.31;56.42
60228;BME280;46091;46.512;6.626;2023-01-27T05:56:03;96698.78;;;4.30;55.97
60228;BME280;46091;46.512;6.626;2023-01-27T05:58:07;96699.22;;;4.26;56.24
60228;BME280;46091;46.512;6.626;2023-01-27T06:00:11;96709.38;;;4.29;56.09
60228;BME280;46091;46.512;6.626;2023-01-27T06:02:13;96702.72;;;4.34;55.98
60228;BME280;46091;46.512;6.626;2023-01-27T06:04:16;96715.31;;;4.39;55.93
60228;BME280;46091;46.512;6.626;2023-01-27T06:06:22;96704.00;;;4.30;55.84
60228;BME280;46091;46.512;6.626;2023-01-27T06:08:25;96709.09;;;4.32;55.85
60228;BME280;46091;46.512;6.626;2023-01-27T06:10:28;96709.78;;;4.42;55.82
60228;BME280;46091;46.512;6.626;2023-01-27T06:12:32;96702.94;;;4.49;55.67
60228;BME280;46091;46.512;6.626;2023-01-27T06:14:37;96711.16;;;4.54;55.59
60228;BME280;46091;46.512;6.626;2023-01-27T06:16:40;96709.03;;;4.58;55.44
60228;BME280;46091;46.512;6.626;2023-01-27T06:18:44;96711.00;;;4.56;55.30
60228;BME280;46091;46.512;6.626;2023-01-27T06:20:47;96714.75;;;4.53;55.43
60228;BME280;46091;46.512;6.626;2023-01-27T06:22:50;96717.53;;;4.60;55.33
60228;BME280;46091;46.512;6.626;2023-01-27T06:24:53;96723.63;;;4.68;55.20
60228;BME280;46091;46.512;6.626;2023-01-27T06:26:56;96715.44;;;4.72;54.85
60228;BME280;46091;46.512;6.626;2023-01-27T06:28:59;96727.22;;;4.67;54.74
60228;BME280;46091;46.512;6.626;2023-01-27T06:31:07;96725.56;;;4.58;54.32
60228;BME280;46091;46.512;6.626;2023-01-27T06:33:10;96727.13;;;4.43;54.37
60228;BME280;46091;46.512;6.626;2023-01-27T06:35:15;96724.97;;;4.38;54.75
60228;BME280;46091;46.512;6.626;2023-01-27T06:37:18;96725.00;;;4.47;54.87
60228;BME280;46091;46.512;6.626;2023-01-27T06:39:21;96729.97;;;4.58;54.77
60228;BME280;46091;46.512;6.626;2023-01-27T06:41:24;96725.59;;;4.66;54.34
60228;BME280;46091;46.512;6.626;2023-01-27T06:43:26;96728.19;;;4.58;54.43
60228;BME280;46091;46.512;6.626;2023-01-27T06:45:29;96722.78;;;4.60;54.58
60228;BME280;46091;46.512;6.626;2023-01-27T06:47:33;96724.94;;;4.64;54.54
60228;BME280;46091;46.512;6.626;2023-01-27T06:49:36;96726.25;;;4.68;54.28
60228;BME280;46091;46.512;6.626;2023-01-27T06:51:39;96719.38;;;4.67;54.35
60228;BME280;46091;46.512;6.626;2023-01-27T06:53:42;96723.97;;;4.65;54.24
60228;BME280;46091;46.512;6.626;2023-01-27T06:55:44;96721.03;;;4.68;54.08
60228;BME280;46091;46.512;6.626;2023-01-27T06:57:47;96727.41;;;4.66;53.96
60228;BME280;46091;46.512;6.626;2023-01-27T06:59:50;96722.63;;;4.61;54.10
60228;BME280;46091;46.512;6.626;2023-01-27T07:01:53;96723.13;;;4.65;54.02
60228;BME280;46091;46.512;6.626;2023-01-27T07:03:57;96726.22;;;4.60;53.89
60228;BME280;46091;46.512;6.626;2023-01-27T07:06:00;96720.00;;;4.61;53.95
60228;BME280;46091;46.512;6.626;2023-01-27T07:08:02;96722.66;;;4.70;53.88
60228;BME280;46091;46.512;6.626;2023-01-27T07:10:06;96727.59;;;4.81;53.74
60228;BME280;46091;46.512;6.626;2023-01-27T07:12:09;96719.09;;;4.87;53.70
60228;BME280;46091;46.512;6.626;2023-01-27T07:14:12;96719.09;;;4.87;53.65
60228;BME280;46091;46.512;6.626;2023-01-27T07:16:15;96726.94;;;4.87;53.44
60228;BME280;46091;46.512;6.626;2023-01-27T07:18:18;96728.75;;;4.86;53.43
60228;BME280;46091;46.512;6.626;2023-01-27T07:20:22;96724.84;;;4.90;53.43
60228;BME280;46091;46.512;6.626;2023-01-27T07:22:28;96720.44;;;4.91;53.18
60228;BME280;46091;46.512;6.626;2023-01-27T07:24:31;96720.75;;;4.88;53.36
60228;BME280;46091;46.512;6.626;2023-01-27T07:26:34;96721.25;;;4.91;53.23
60228;BME280;46091;46.512;6.626;2023-01-27T07:28:37;96722.06;;;4.92;53.12
60228;BME280;46091;46.512;6.626;2023-01-27T07:30:39;96723.84;;;4.83;52.85
60228;BME280;46091;46.512;6.626;2023-01-27T07:32:43;96726.63;;;4.82;53.16
60228;BME280;46091;46.512;6.626;2023-01-27T07:34:46;96720.25;;;4.84;53.06
60228;BME280;46091;46.512;6.626;2023-01-27T07:36:52;96722.84;;;4.76;52.81
60228;BME280;46091;46.512;6.626;2023-01-27T07:38:54;96730.34;;;4.71;53.06
60228;BME280;46091;46.512;6.626;2023-01-27T07:40:57;96732.47;;;4.67;53.08
60228;BME280;46091;46.512;6.626;2023-01-27T07:43:00;96727.94;;;4.78;53.09
60228;BME280;46091;46.512;6.626;2023-01-27T07:45:06;96733.84;;;4.88;53.02
60228;BME280;46091;46.512;6.626;2023-01-27T07:47:09;96734.81;;;4.87;52.93
60228;BME280;46091;46.512;6.626;2023-01-27T07:49:12;96740.91;;;4.87;52.85
60228;BME280;46091;46.512;6.626;2023-01-27T07:51:15;96731.25;;;4.88;52.59
60228;BME280;46091;46.512;6.626;2023-01-27T07:53:19;96723.06;;;4.91;52.70
60228;BME280;46091;46.512;6.626;2023-01-27T07:55:22;96733.16;;;4.86;52.53
60228;BME280;46091;46.512;6.626;2023-01-27T07:57:25;96729.88;;;4.76;52.43
60228;BME280;46091;46.512;6.626;2023-01-27T07:59:28;96734.81;;;4.79;52.53
60228;BME280;46091;46.512;6.626;2023-01-27T08:01:30;96730.22;;;4.81;52.45
60228;BME280;46091;46.512;6.626;2023-01-27T08:03:34;96720.56;;;4.81;52.46
60228;BME280;46091;46.512;6.626;2023-01-27T08:05:37;96731.25;;;4.88;52.45
60228;BME280;46091;46.512;6.626;2023-01-27T08:07:40;96725.69;;;4.91;52.18
60228;BME280;46091;46.512;6.626;2023-01-27T08:09:44;96725.69;;;4.91;52.12
60228;BME280;46091;46.512;6.626;2023-01-27T08:11:47;96731.53;;;4.85;52.04
60228;BME280;46091;46.512;6.626;2023-01-27T08:13:50;96734.81;;;4.87;51.97
60228;BME280;46091;46.512;6.626;2023-01-27T08:15:55;96729.72;;;4.77;51.93
60228;BME280;46091;46.512;6.626;2023-01-27T08:17:58;96727.72;;;4.71;52.03
60228;BME280;46091;46.512;6.626;2023-01-27T08:20:03;96722.16;;;4.74;51.91
60228;BME280;46091;46.512;6.626;2023-01-27T08:22:06;96726.44;;;4.75;51.92
60228;BME280;46091;46.512;6.626;2023-01-27T08:24:09;96727.22;;;4.67;51.87
60228;BME280;46091;46.512;6.626;2023-01-27T08:26:14;96735.88;;;4.60;51.68
60228;BME280;46091;46.512;6.626;2023-01-27T08:28:18;96731.94;;;4.56;51.98
60228;BME280;46091;46.512;6.626;2023-01-27T08:30:23;96729.31;;;4.64;51.83
60228;BME280;46091;46.512;6.626;2023-01-27T08:32:26;96729.53;;;4.71;51.70
60228;BME280;46091;46.512;6.626;2023-01-27T08:34:29;96732.63;;;4.66;51.54
60228;BME280;46091;46.512;6.626;2023-01-27T08:36:32;96732.16;;;4.71;51.65
60228;BME280;46091;46.512;6.626;2023-01-27T08:38:35;96727.75;;;4.79;51.67
60228;BME280;46091;46.512;6.626;2023-01-27T08:40:39;96736.78;;;4.85;51.57
60228;BME280;46091;46.512;6.626;2023-01-27T08:42:44;96743.66;;;4.86;51.41
60228;BME280;46091;46.512;6.626;2023-01-27T08:44:47;96745.44;;;4.85;51.30
60228;BME280;46091;46.512;6.626;2023-01-27T08:46:50;96743.34;;;4.89;51.26
60228;BME280;46091;46.512;6.626;2023-01-27T08:48:53;96749.75;;;4.94;51.41
60228;BME280;46091;46.512;6.626;2023-01-27T08:50:56;96748.97;;;5.02;51.25
60228;BME280;46091;46.512;6.626;2023-01-27T08:52:59;96749.94;;;5.01;51.07
60228;BME280;46091;46.512;6.626;2023-01-27T08:55:02;96751.22;;;4.97;50.80
60228;BME280;46091;46.512;6.626;2023-01-27T08:57:05;96760.38;;;4.93;51.03
60228;BME280;46091;46.512;6.626;2023-01-27T08:59:09;96754.97;;;4.94;51.10
60228;BME280;46091;46.512;6.626;2023-01-27T09:01:12;96750.59;;;5.03;51.03
60228;BME280;46091;46.512;6.626;2023-01-27T09:03:16;96753.25;;;5.11;50.84
60228;BME280;46091;46.512;6.626;2023-01-27T09:05:20;96753.53;;;5.08;50.85
60228;BME280;46091;46.512;6.626;2023-01-27T09:07:23;96758.28;;;5.05;51.02
60228;BME280;46091;46.512;6.626;2023-01-27T09:09:26;96767.00;;;5.13;50.63
60228;BME280;46091;46.512;6.626;2023-01-27T09:11:29;96756.84;;;5.10;50.63
60228;BME280;46091;46.512;6.626;2023-01-27T09:13:32;96761.75;;;5.13;50.89
60228;BME280;46091;46.512;6.626;2023-01-27T09:15:36;96765.38;;;5.12;50.51
60228;BME280;46091;46.512;6.626;2023-01-27T09:17:41;96765.00;;;4.99;50.74
60228;BME280;46091;46.512;6.626;2023-01-27T09:19:44;96760.38;;;4.93;50.77
60228;BME280;46091;46.512;6.626;2023-01-27T09:21:47;96763.34;;;4.90;50.76
60228;BME280;46091;46.512;6.626;2023-01-27T09:23:50;96760.22;;;4.94;50.86
60228;BME280;46091;46.512;6.626;2023-01-27T09:25:53;96760.72;;;4.90;50.68
60228;BME280;46091;46.512;6.626;2023-01-27T09:27:57;96753.63;;;4.82;50.86
60228;BME280;46091;46.512;6.626;2023-01-27T09:30:04;96766.56;;;4.84;50.87
60228;BME280;46091;46.512;6.626;2023-01-27T09:32:09;96752.19;;;4.88;50.66
60228;BME280;46091;46.512;6.626;2023-01-27T09:34:13;96758.25;;;4.96;50.79
60228;BME280;46091;46.512;6.626;2023-01-27T09:36:19;96768.94;;;5.03;50.62
60228;BME280;46091;46.512;6.626;2023-01-27T09:38:23;96761.41;;;5.00;50.42
60228;BME280;46091;46.512;6.626;2023-01-27T09:40:31;96760.06;;;4.96;50.49
60228;BME280;46091;46.512;6.626;2023-01-27T09:42:50;96760.09;;;5.04;50.51
60228;BME280;46091;46.512;6.626;2023-01-27T09:45:15;96762.91;;;5.11;50.42
60228;BME280;46091;46.512;6.626;2023-01-27T09:47:30;96763.91;;;5.18;50.31
60228;BME280;46091;46.512;6.626;2023-01-27T09:49:54;96765.00;;;5.07;50.43
60228;BME280;46091;46.512;6.626;2023-01-27T09:52:08;96754.69;;;5.06;50.35
60228;BME280;46091;46.512;6.626;2023-01-27T09:54:31;96766.84;;;5.15;50.39
60228;BME280;46091;46.512;6.626;2023-01-27T09:56:42;96766.22;;;5.21;50.35
60228;BME280;46091;46.512;6.626;2023-01-27T09:59:01;96766.88;;;5.23;50.09
60228;BME280;46091;46.512;6.626;2023-01-27T10:01:14;96775.38;;;5.25;50.00
60228;BME280;46091;46.512;6.626;2023-01-27T10:03:36;96770.91;;;5.09;50.03
60228;BME280;46091;46.512;6.626;2023-01-27T10:06:09;96767.63;;;4.99;50.12
60228;BME280;46091;46.512;6.626;2023-01-27T10:08:30;96770.59;;;5.12;50.26
60228;BME280;46091;46.512;6.626;2023-01-27T10:10:45;96770.13;;;5.17;50.05
60228;BME280;46091;46.512;6.626;2023-01-27T10:13:04;96772.94;;;5.23;49.88
60228;BME280;46091;46.512;6.626;2023-01-27T10:15:21;96777.16;;;5.16;49.73
60228;BME280;46091;46.512;6.626;2023-01-27T10:17:38;96775.19;;;5.10;49.90
60228;BME280;46091;46.512;6.626;2023-01-27T10:19:51;96769.09;;;5.02;49.89
60228;BME280;46091;46.512;6.626;2023-01-27T10:22:07;96780.69;;;4.91;49.88
60228;BME280;46091;46.512;6.626;2023-01-27T10:24:20;96781.66;;;4.90;50.10
60228;BME280;46091;46.512;6.626;2023-01-27T10:26:30;96770.25;;;4.99;50.08
60228;BME280;46091;46.512;6.626;2023-01-27T10:28:36;96781.72;;;5.06;49.88
60228;BME280;46091;46.512;6.626;2023-01-27T10:30:45;96775.84;;;5.12;49.75
60228;BME280;46091;46.512;6.626;2023-01-27T10:32:56;96771.75;;;5.10;49.85
60228;BME280;46091;46.512;6.626;2023-01-27T10:35:12;96774.06;;;5.21;49.92
60228;BME280;46091;46.512;6.626;2023-01-27T10:37:22;96763.25;;;5.16;49.78
60228;BME280;46091;46.512;6.626;2023-01-27T10:39:34;96769.31;;;5.16;49.63
60228;BME280;46091;46.512;6.626;2023-01-27T10:41:47;96769.31;;;5.24;49.73
60228;BME280;46091;46.512;6.626;2023-01-27T10:44:07;96762.13;;;5.26;49.73
60228;BME280;46091;46.512;6.626;2023-01-27T10:46:15;96754.88;;;5.20;49.65
60228;BME280;46091;46.512;6.626;2023-01-27T10:48:32;96763.06;;;5.17;49.69
60228;BME280;46091;46.512;6.626;2023-01-27T10:50:42;96759.47;;;5.18;49.86
60228;BME280;46091;46.512;6.626;2023-01-27T10:52:52;96760.00;;;5.22;49.79
60228;BME280;46091;46.512;6.626;2023-01-27T10:55:01;96749.00;;;5.18;49.61
60228;BME280;46091;46.512;6.626;2023-01-27T10:57:09;96751.81;;;5.25;49.57
60228;BME280;46091;46.512;6.626;2023-01-27T10:59:17;96750.31;;;5.22;49.63
60228;BME280;46091;46.512;6.626;2023-01-27T11:01:27;96746.06;;;5.21;49.59
60228;BME280;46091;46.512;6.626;2023-01-27T11:03:35;96736.41;;;5.22;49.31
60228;BME280;46091;46.512;6.626;2023-01-27T11:05:48;96734.91;;;5.19;49.42
60228;BME280;46091;46.512;6.626;2023-01-27T11:07:57;96746.06;;;5.21;49.56
60228;BME280;46091;46.512;6.626;2023-01-27T11:10:06;96732.31;;;5.28;49.51
60228;BME280;46091;46.512;6.626;2023-01-27T11:12:14;96746.72;;;5.32;49.53
60228;BME280;46091;46.512;6.626;2023-01-27T11:14:25;96732.97;;;5.38;49.49
60228;BME280;46091;46.512;6.626;2023-01-27T11:16:33;96746.09;;;5.38;49.44
60228;BME280;46091;46.512;6.626;2023-01-27T11:18:37;96740.66;;;5.31;49.51
60228;BME280;46091;46.512;6.626;2023-01-27T11:20:42;96733.97;;;5.37;49.38
60228;BME280;46091;46.512;6.626;2023-01-27T11:22:52;96737.88;;;5.41;49.32
60228;BME280;46091;46.512;6.626;2023-01-27T11:25:01;96726.94;;;5.45;49.44
60228;BME280;46091;46.512;6.626;2023-01-27T11:27:12;96732.97;;;5.54;49.40
60228;BME280;46091;46.512;6.626;2023-01-27T11:29:20;96727.09;;;5.60;49.23
60228;BME280;46091;46.512;6.626;2023-01-27T11:31:34;96719.41;;;5.67;49.12
60228;BME280;46091;46.512;6.626;2023-01-27T11:33:47;96724.47;;;5.76;49.09
60228;BME280;46091;46.512;6.626;2023-01-27T11:35:55;96720.84;;;5.77;49.12
60228;BME280;46091;46.512;6.626;2023-01-27T11:37:59;96728.09;;;5.67;48.96
60228;BME280;46091;46.512;6.626;2023-01-27T11:40:19;96728.56;;;5.54;49.09
60228;BME280;46091;46.512;6.626;2023-01-27T11:42:24;96722.34;;;5.55;49.21
60228;BME280;46091;46.512;6.626;2023-01-27T11:44:32;96724.47;;;5.60;49.23
60228;BME280;46091;46.512;6.626;2023-01-27T11:46:35;96712.34;;;5.59;49.12
60228;BME280;46091;46.512;6.626;2023-01-27T11:48:41;96709.06;;;5.57;49.00
60228;BME280;46091;46.512;6.626;2023-01-27T11:50:45;96699.41;;;5.58;49.16
60228;BME280;46091;46.512;6.626;2023-01-27T11:52:51;96709.06;;;5.49;49.02
60228;BME280;46091;46.512;6.626;2023-01-27T11:55:03;96705.78;;;5.47;49.27
60228;BME280;46091;46.512;6.626;2023-01-27T11:57:14;96700.22;;;5.50;49.20
60228;BME280;46091;46.512;6.626;2023-01-27T11:59:22;96705.13;;;5.53;49.15
60228;BME280;46091;46.512;6.626;2023-01-27T12:01:36;96705.13;;;5.45;48.85
60228;BME280;46091;46.512;6.626;2023-01-27T12:03:48;96705.94;;;5.21;49.12
60228;BME280;46091;46.512;6.626;2023-01-27T12:05:55;96691.34;;;5.18;49.33
60228;BME280;46091;46.512;6.626;2023-01-27T12:08:03;96692.19;;;5.35;49.19
60228;BME280;46091;46.512;6.626;2023-01-27T12:10:26;96699.72;;;5.46;49.26
60228;BME280;46091;46.512;6.626;2023-01-27T12:12:36;96703.84;;;5.57;49.04
60228;BME280;46091;46.512;6.626;2023-01-27T12:14:40;96695.63;;;5.60;48.84
60228;BME280;46091;46.512;6.626;2023-01-27T12:16:50;96707.09;;;5.59;49.07
60228;BME280;46091;46.512;6.626;2023-01-27T12:18:57;96694.31;;;5.56;49.06
60228;BME280;46091;46.512;6.626;2023-01-27T12:21:03;96682.84;;;5.57;48.87
60228;BME280;46091;46.512;6.626;2023-01-27T12:23:17;96692.81;;;5.53;49.02
60228;BME280;46091;46.512;6.626;2023-01-27T12:25:23;96687.28;;;5.48;48.76
60228;BME280;46091;46.512;6.626;2023-01-27T12:27:35;96680.22;;;5.33;49.02
60228;BME280;46091;46.512;6.626;2023-01-27T12:29:45;96674.31;;;5.31;49.11
60228;BME280;46091;46.512;6.626;2023-01-27T12:31:53;96683.00;;;5.39;49.17
60228;BME280;46091;46.512;6.626;2023-01-27T12:33:58;96672.34;;;5.49;49.12
60228;BME280;46091;46.512;6.626;2023-01-27T12:36:10;96674.66;;;5.60;49.06
60228;BME280;46091;46.512;6.626;2023-01-27T12:38:16;96689.22;;;5.71;48.82
60228;BME280;46091;46.512;6.626;2023-01-27T12:40:23;96690.69;;;5.73;49.02
60228;BME280;46091;46.512;6.626;2023-01-27T12:42:36;96677.75;;;5.64;48.46
60228;BME280;46091;46.512;6.626;2023-01-27T12:44:41;96684.47;;;5.50;48.94
60228;BME280;46091;46.512;6.626;2023-01-27T12:46:56;96678.25;;;5.59;49.15
60228;BME280;46091;46.512;6.626;2023-01-27T12:49:04;96678.09;;;5.69;49.10
60228;BME280;46091;46.512;6.626;2023-01-27T12:51:14;96672.97;;;5.75;48.93
60228;BME280;46091;46.512;6.626;2023-01-27T12:53:18;96668.06;;;5.72;48.80
60228;BME280;46091;46.512;6.626;2023-01-27T12:55:27;96675.13;;;5.64;48.89
60228;BME280;46091;46.512;6.626;2023-01-27T12:57:31;96670.38;;;5.59;48.92
60228;BME280;46091;46.512;6.626;2023-01-27T12:59:37;96675.63;;;5.51;49.05
60228;BME280;46091;46.512;6.626;2023-01-27T13:01:57;96676.28;;;5.53;49.00
60228;BME280;46091;46.512;6.626;2023-01-27T13:04:03;96667.44;;;5.46;48.84
60228;BME280;46091;46.512;6.626;2023-01-27T13:06:08;96681.53;;;5.45;48.92
60228;BME280;46091;46.512;6.626;2023-01-27T13:08:17;96675.47;;;5.44;48.96
60228;BME280;46091;46.512;6.626;2023-01-27T13:10:23;96677.09;;;5.29;48.78
60228;BME280;46091;46.512;6.626;2023-01-27T13:12:30;96673.94;;;5.09;49.04
60228;BME280;46091;46.512;6.626;2023-01-27T13:14:39;96662.66;;;5.01;49.24
60228;BME280;46091;46.512;6.626;2023-01-27T13:16:49;96676.88;;;4.98;49.08
60228;BME280;46091;46.512;6.626;2023-01-27T13:18:54;96686.72;;;4.88;49.22
60228;BME280;46091;46.512;6.626;2023-01-27T13:21:03;96675.22;;;4.81;49.40
60228;BME280;46091;46.512;6.626;2023-01-27T13:23:14;96681.91;;;4.75;49.65
60228;BME280;46091;46.512;6.626;2023-01-27T13:25:22;96673.91;;;4.77;49.69
60228;BME280;46091;46.512;6.626;2023-01-27T13:27:31;96675.88;;;4.83;49.50
60228;BME280;46091;46.512;6.626;2023-01-27T13:29:39;96692.09;;;4.94;49.47
60228;BME280;46091;46.512;6.626;2023-01-27T13:31:48;96691.47;;;5.01;49.38
60228;BME280;46091;46.512;6.626;2023-01-27T13:33:55;96687.38;;;4.90;49.43
60228;BME280;46091;46.512;6.626;2023-01-27T13:36:05;96668.84;;;4.83;49.56
60228;BME280;46091;46.512;6.626;2023-01-27T13:38:13;96685.56;;;4.90;49.33
60228;BME280;46091;46.512;6.626;2023-01-27T13:40:20;96682.78;;;4.92;49.32
60228;BME280;46091;46.512;6.626;2023-01-27T13:42:26;96676.69;;;4.83;49.52
60228;BME280;46091;46.512;6.626;2023-01-27T13:44:35;96681.94;;;4.83;49.37
60228;BME280;46091;46.512;6.626;2023-01-27T13:46:41;96686.03;;;4.78;49.44
60228;BME280;46091;46.512;6.626;2023-01-27T13:48:47;96670.13;;;4.71;49.44
60228;BME280;46091;46.512;6.626;2023-01-27T13:50:57;96669.25;;;4.62;49.56
60228;BME280;46091;46.512;6.626;2023-01-27T13:53:04;96667.63;;;4.61;49.67
60228;BME280;46091;46.512;6.626;2023-01-27T13:55:10;96654.38;;;4.63;49.69
60228;BME280;46091;46.512;6.626;2023-01-27T13:57:25;96686.31;;;4.66;49.72
60228;BME280;46091;46.512;6.626;2023-01-27T13:59:39;96664.03;;;4.62;49.73
60228;BME280;46091;46.512;6.626;2023-01-27T14:01:48;96657.28;;;4.52;49.98
60228;BME280;46091;46.512;6.626;2023-01-27T14:04:13;96665.28;;;4.42;49.97
60228;BME280;46091;46.512;6.626;2023-01-27T14:06:32;96673.28;;;4.41;50.17
60228;BME280;46091;46.512;6.626;2023-01-27T14:08:48;96663.28;;;4.36;50.21
60228;BME280;46091;46.512;6.626;2023-01-27T14:11:03;96658.66;;;4.30;50.37
60228;BME280;46091;46.512;6.626;2023-01-27T14:13:22;96659.19;;;4.33;50.53
60228;BME280;46091;46.512;6.626;2023-01-27T14:15:32;96673.25;;;4.32;50.62
60228;BME280;46091;46.512;6.626;2023-01-27T14:17:42;96676.03;;;4.31;50.55
60228;BME280;46091;46.512;6.626;2023-01-27T14:19:56;96676.16;;;4.29;50.55
60228;BME280;46091;46.512;6.626;2023-01-27T14:22:06;96681.41;;;4.29;50.65
60228;BME280;46091;46.512;6.626;2023-01-27T14:24:16;96700.88;;;4.27;50.62
60228;BME280;46091;46.512;6.626;2023-01-27T14:26:36;96698.09;;;4.28;50.65
60228;BME280;46091;46.512;6.626;2023-01-27T14:28:57;96675.22;;;4.30;50.63
60228;BME280;46091;46.512;6.626;2023-01-27T14:31:08;96693.53;;;4.30;50.64
60228;BME280;46091;46.512;6.626;2023-01-27T14:33:20;96698.63;;;4.32;50.59
60228;BME280;46091;46.512;6.626;2023-01-27T14:35:30;96672.28;;;4.33;50.66
60228;BME280;46091;46.512;6.626;2023-01-27T14:37:41;96681.28;;;4.39;50.51
60228;BME280;46091;46.512;6.626;2023-01-27T14:39:56;96679.31;;;4.41;50.54
60228;BME280;46091;46.512;6.626;2023-01-27T14:42:07;96682.75;;;4.42;50.59
60228;BME280;46091;46.512;6.626;2023-01-27T14:44:17;96692.25;;;4.34;50.69
60228;BME280;46091;46.512;6.626;2023-01-27T14:46:36;96682.09;;;4.31;50.76
60228;BME280;46091;46.512;6.626;2023-01-27T14:48:54;96693.38;;;4.32;50.63
60228;BME280;46091;46.512;6.626;2023-01-27T14:51:05;96702.88;;;4.33;50.88
60228;BME280;46091;46.512;6.626;2023-01-27T14:53:33;96704.66;;;4.32;50.71
60228;BME280;46091;46.512;6.626;2023-01-27T14:55:44;96711.34;;;4.27;50.86
60228;BME280;46091;46.512;6.626;2023-01-27T14:57:56;96714.59;;;4.21;50.97
60228;BME280;46091;46.512;6.626;2023-01-27T15:00:15;96708.97;;;4.16;50.97
60228;BME280;46091;46.512;6.626;2023-01-27T15:02:33;96718.47;;;4.17;51.09
60228;BME280;46091;46.512;6.626;2023-01-27T15:04:51;96724.06;;;4.22;50.90
60228;BME280;46091;46.512;6.626;2023-01-27T15:07:06;96734.38;;;4.23;50.93
60228;BME280;46091;46.512;6.626;2023-01-27T15:09:20;96720.25;;;4.16;50.93
60228;BME280;46091;46.512;6.626;2023-01-27T15:11:44;96718.84;;;4.22;50.98
60228;BME280;46091;46.512;6.626;2023-01-27T15:14:04;96727.69;;;4.29;50.93
60228;BME280;46091;46.512;6.626;2023-01-27T15:16:28;96728.84;;;4.26;50.97
60228;BME280;46091;46.512;6.626;2023-01-27T15:18:50;96743.56;;;4.27;50.97
60228;BME280;46091;46.512;6.626;2023-01-27T15:21:16;96747.66;;;4.30;51.07
60228;BME280;46091;46.512;6.626;2023-01-27T15:23:42;96746.66;;;4.23;50.88
60228;BME280;46091;46.512;6.626;2023-01-27T15:25:49;96732.91;;;4.21;51.00
60228;BME280;46091;46.512;6.626;2023-01-27T15:27:54;96753.13;;;4.19;51.02
60228;BME280;46091;46.512;6.626;2023-01-27T15:30:04;96744.47;;;4.18;51.05
60228;BME280;46091;46.512;6.626;2023-01-27T15:32:12;96749.94;;;4.25;51.02
60228;BME280;46091;46.512;6.626;2023-01-27T15:34:24;96745.66;;;4.24;51.11
60228;BME280;46091;46.512;6.626;2023-01-27T15:36:32;96754.13;;;4.18;51.17
60228;BME280;46091;46.512;6.626;2023-01-27T15:38:35;96745.28;;;4.19;51.16
60228;BME280;46091;46.512;6.626;2023-01-27T15:40:59;96759.56;;;4.24;51.08
60228;BME280;46091;46.512;6.626;2023-01-27T15:43:11;96755.38;;;4.31;51.00
60228;BME280;46091;46.512;6.626;2023-01-27T15:45:27;96753.56;;;4.32;50.99
60228;BME280;46091;46.512;6.626;2023-01-27T15:47:31;96755.81;;;4.27;50.97
60228;BME280;46091;46.512;6.626;2023-01-27T15:49:40;96759.06;;;4.21;51.04
60228;BME280;46091;46.512;6.626;2023-01-27T15:51:44;96766.22;;;4.19;50.94
60228;BME280;46091;46.512;6.626;2023-01-27T15:53:50;96748.88;;;4.18;51.10
60228;BME280;46091;46.512;6.626;2023-01-27T15:55:55;96759.81;;;4.13;51.07
60228;BME280;46091;46.512;6.626;2023-01-27T15:58:05;96762.44;;;4.13;51.09
60228;BME280;46091;46.512;6.626;2023-01-27T16:00:24;96767.31;;;4.08;51.28
60228;BME280;46091;46.512;6.626;2023-01-27T16:02:30;96761.56;;;4.04;51.08
60228;BME280;46091;46.512;6.626;2023-01-27T16:04:33;96756.81;;;4.00;51.17
60228;BME280;46091;46.512;6.626;2023-01-27T16:06:45;96774.44;;;3.98;51.21
60228;BME280;46091;46.512;6.626;2023-01-27T16:08:51;96765.72;;;3.89;51.27
60228;BME280;46091;46.512;6.626;2023-01-27T16:11:22;96759.16;;;3.85;51.40
60228;BME280;46091;46.512;6.626;2023-01-27T16:13:28;96755.44;;;3.96;51.28
60228;BME280;46091;46.512;6.626;2023-01-27T16:15:33;96748.63;;;4.03;51.01
60228;BME280;46091;46.512;6.626;2023-01-27T16:17:55;96767.56;;;3.97;51.16
60228;BME280;46091;46.512;6.626;2023-01-27T16:20:19;96775.19;;;3.90;51.39
60228;BME280;46091;46.512;6.626;2023-01-27T16:22:25;96770.72;;;3.83;51.30
60228;BME280;46091;46.512;6.626;2023-01-27T16:24:32;96775.44;;;3.79;51.52
60228;BME280;46091;46.512;6.626;2023-01-27T16:26:41;96799.31;;;3.84;51.51
60228;BME280;46091;46.512;6.626;2023-01-27T16:28:46;96780.91;;;3.86;51.51
60228;BME280;46091;46.512;6.626;2023-01-27T16:31:00;96781.41;;;3.89;51.39
60228;BME280;46091;46.512;6.626;2023-01-27T16:33:07;96776.25;;;3.79;51.35
60228;BME280;46091;46.512;6.626;2023-01-27T16:35:19;96791.28;;;3.77;51.50
60228;BME280;46091;46.512;6.626;2023-01-27T16:37:25;96797.50;;;3.76;51.55
60228;BME280;46091;46.512;6.626;2023-01-27T16:39:34;96795.31;;;3.72;51.58
60228;BME280;46091;46.512;6.626;2023-01-27T16:41:50;96812.94;;;3.70;51.79
60228;BME280;46091;46.512;6.626;2023-01-27T16:43:59;96789.72;;;3.67;51.77
60228;BME280;46091;46.512;6.626;2023-01-27T16:46:03;96800.84;;;3.69;51.72
60228;BME280;46091;46.512;6.626;2023-01-27T16:48:14;96809.97;;;3.65;51.77
60228;BME280;46091;46.512;6.626;2023-01-27T16:50:31;96799.50;;;3.65;51.81
60228;BME280;46091;46.512;6.626;2023-01-27T16:52:36;96794.28;;;3.65;51.84
60228;BME280;46091;46.512;6.626;2023-01-27T16:54:44;96803.09;;;3.64;51.96
60228;BME280;46091;46.512;6.626;2023-01-27T16:56:51;96810.25;;;3.62;51.82
60228;BME280;46091;46.512;6.626;2023-01-27T16:58:58;96809.81;;;3.66;51.88
60228;BME280;46091;46.512;6.626;2023-01-27T17:01:02;96835.44;;;3.63;51.99
60228;BME280;46091;46.512;6.626;2023-01-27T17:03:16;96812.34;;;3.58;51.93
60228;BME280;46091;46.512;6.626;2023-01-27T17:05:21;96821.41;;;3.64;51.90
60228;BME280;46091;46.512;6.626;2023-01-27T17:07:24;96810.63;;;3.67;51.96
60228;BME280;46091;46.512;6.626;2023-01-27T17:09:30;96810.63;;;3.67;51.76